Time;durP1;ratioP1;P1;durP2;ratioP2;P2;SDS_P1;SDS_P2;PMS_P1;PMS_P2;Temp;Humidity;BMP_temperature;BMP_pressure;BME280_temperature;BME280_humidity;BME280_pressure;Samples;Min_cycle;Max_cycle;Signal;HPM_P1;HPM_P2
2022/04/23 00:00:40;;;;;;;12.50;10.50;;;;;;;17.42;35.21;100058.75;5072505;28;20489;-71
2022/04/23 00:03:07;;;;;;;11.73;9.68;;;;;;;17.41;35.20;100062.53;5060381;28;20058;-71
2022/04/23 00:05:34;;;;;;;14.05;10.35;;;;;;;17.38;35.81;100064.72;5046902;28;20046;-71
2022/04/23 00:08:00;;;;;;;12.23;10.23;;;;;;;17.33;35.34;100069.88;5060066;28;20485;-71
2022/04/23 00:10:27;;;;;;;12.48;10.20;;;;;;;17.29;35.63;100066.63;5042651;28;20144;-71
2022/04/23 00:12:54;;;;;;;12.90;10.30;;;;;;;17.24;35.54;100062.63;5042431;28;20183;-71
2022/04/23 00:15:25;;;;;;;12.68;11.05;;;;;;;17.18;35.81;100066.03;5052645;28;20143;-71
2022/04/23 00:17:52;;;;;;;15.15;11.70;;;;;;;17.13;36.05;100064.63;5039874;28;20187;-72
2022/04/23 00:20:18;;;;;;;14.15;11.88;;;;;;;17.11;36.00;100063.09;5038200;28;20064;-71
2022/04/23 00:22:45;;;;;;;14.70;11.50;;;;;;;17.05;36.22;100063.72;5038161;28;20499;-71
2022/04/23 00:25:11;;;;;;;12.75;10.98;;;;;;;17.01;36.20;100068.69;5054127;28;20084;-71
2022/04/23 00:27:38;;;;;;;13.20;11.30;;;;;;;16.97;36.46;100064.53;5055571;28;20358;-72
2022/04/23 00:30:08;;;;;;;12.90;10.45;;;;;;;16.96;36.01;100067.47;5027716;28;20069;-71
2022/04/23 00:32:35;;;;;;;13.55;11.07;;;;;;;16.94;36.48;100066.75;5056723;28;20048;-71
2022/04/23 00:35:01;;;;;;;14.65;11.48;;;;;;;16.90;36.25;100062.59;5053131;28;20415;-72
2022/04/23 00:37:27;;;;;;;17.35;11.25;;;;;;;16.85;36.45;100065.84;5056417;28;20048;-71
2022/04/23 00:39:54;;;;;;;12.85;10.77;;;;;;;16.83;36.37;100062.41;5057246;28;20581;-71
2022/04/23 00:42:21;;;;;;;13.00;11.00;;;;;;;16.79;36.59;100063.75;5060666;28;20139;-71
2022/04/23 00:44:47;;;;;;;13.50;11.15;;;;;;;16.76;37.10;100064.06;5045972;28;20077;-70
2022/04/23 00:47:14;;;;;;;14.43;11.85;;;;;;;16.71;36.79;100067.31;5036472;28;20450;-71
2022/04/23 00:49:40;;;;;;;13.13;10.80;;;;;;;16.68;36.91;100062.13;5049064;28;20049;-71
2022/04/23 00:52:08;;;;;;;13.38;10.82;;;;;;;16.69;36.77;100063.88;5039746;28;20053;-72
2022/04/23 00:54:35;;;;;;;16.20;11.65;;;;;;;16.65;37.10;100065.19;5056380;28;20481;-71
2022/04/23 00:57:04;;;;;;;14.45;10.75;;;;;;;16.64;37.07;100062.59;5058710;28;20061;-71
2022/04/23 00:59:31;;;;;;;14.05;11.40;;;;;;;16.59;36.95;100060.34;5060262;28;20155;-72
2022/04/23 01:01:58;;;;;;;14.13;11.32;;;;;;;16.58;37.01;100063.22;5032537;28;20049;-71
2022/04/23 01:04:24;;;;;;;13.73;11.70;;;;;;;16.56;37.10;100065.25;5045523;28;20057;-71
2022/04/23 01:06:51;;;;;;;13.65;11.77;;;;;;;16.53;36.97;100062.84;5044675;28;20532;-72
2022/04/23 01:09:18;;;;;;;12.50;10.90;;;;;;;16.49;36.93;100062.31;5038703;28;20045;-71
2022/04/23 01:11:44;;;;;;;14.25;11.60;;;;;;;16.49;37.39;100064.19;5057899;28;20452;-71
2022/04/23 01:14:11;;;;;;;14.85;12.63;;;;;;;16.47;37.33;100058.03;5048005;28;20071;-71
2022/04/23 01:16:37;;;;;;;14.02;11.50;;;;;;;16.44;37.26;100061.06;5050541;28;20131;-72
2022/04/23 01:19:04;;;;;;;13.73;11.63;;;;;;;16.41;37.33;100064.13;5054964;28;20080;-72
2022/04/23 01:21:31;;;;;;;12.70;10.95;;;;;;;16.37;37.44;100066.34;5061164;28;20524;-70
2022/04/23 01:23:58;;;;;;;14.27;11.40;;;;;;;16.34;37.63;100062.03;5048952;28;20053;-70
2022/04/23 01:26:29;;;;;;;14.05;11.20;;;;;;;16.35;37.51;100061.00;5056277;28;20054;-70
2022/04/23 01:28:57;;;;;;;13.77;11.32;;;;;;;16.30;37.46;100068.00;5023798;28;20128;-70
2022/04/23 01:31:25;;;;;;;14.05;12.25;;;;;;;16.28;37.62;100065.41;5055104;28;20049;-72
2022/04/23 01:33:52;;;;;;;14.13;11.98;;;;;;;16.28;37.47;100068.16;5037415;28;20413;-68
2022/04/23 01:36:19;;;;;;;12.65;11.05;;;;;;;16.24;37.73;100066.72;5042831;28;20048;-72
2022/04/23 01:38:45;;;;;;;13.98;11.68;;;;;;;16.24;37.55;100068.59;5058295;28;20120;-72
2022/04/23 01:41:12;;;;;;;13.70;11.30;;;;;;;16.19;37.64;100066.34;5048508;28;20048;-70
2022/04/23 01:43:39;;;;;;;13.27;11.40;;;;;;;16.20;37.74;100070.81;5031993;28;20131;-70
2022/04/23 01:46:06;;;;;;;14.98;11.15;;;;;;;16.18;37.88;100066.50;5046931;28;20060;-69
2022/04/23 01:48:33;;;;;;;13.90;11.57;;;;;;;16.15;38.09;100062.19;5059750;28;20040;-69
2022/04/23 01:51:00;;;;;;;14.73;11.38;;;;;;;16.13;38.00;100069.72;5056290;28;20485;-70
2022/04/23 01:53:26;;;;;;;14.30;11.27;;;;;;;16.12;37.91;100065.25;5057505;28;20082;-70
2022/04/23 01:55:54;;;;;;;14.57;10.93;;;;;;;16.09;37.97;100068.31;5034881;28;20060;-70
2022/04/23 01:58:23;;;;;;;14.45;11.63;;;;;;;16.09;37.77;100071.03;5045366;28;20509;-69
2022/04/23 02:00:52;;;;;;;13.32;10.85;;;;;;;16.08;38.12;100073.94;5049389;28;20346;-69
2022/04/23 02:03:18;;;;;;;13.60;11.00;;;;;;;16.04;38.14;100067.94;5045083;28;20044;-72
2022/04/23 02:05:45;;;;;;;12.25;10.43;;;;;;;16.03;37.70;100076.28;5030722;28;20140;-71
2022/04/23 02:08:16;;;;;;;12.85;10.90;;;;;;;16.04;38.28;100072.53;5056729;28;20556;-71
2022/04/23 02:10:43;;;;;;;13.27;11.10;;;;;;;15.99;38.14;100071.13;5051773;28;20124;-70
2022/04/23 02:13:11;;;;;;;13.07;10.80;;;;;;;15.99;38.21;100071.13;5043701;28;20132;-70
2022/04/23 02:15:38;;;;;;;15.38;11.18;;;;;;;15.97;38.06;100064.09;5038695;28;20132;-71
2022/04/23 02:18:05;;;;;;;11.60;10.25;;;;;;;15.97;38.16;100073.16;5034613;28;20481;-71
2022/04/23 02:20:32;;;;;;;13.77;11.00;;;;;;;15.95;38.38;100066.97;5051720;28;20465;-71
2022/04/23 02:22:58;;;;;;;13.25;10.75;;;;;;;15.94;38.03;100065.25;5056119;28;20076;-71
2022/04/23 02:25:25;;;;;;;13.55;10.52;;;;;;;15.95;38.07;100063.38;5055221;28;20044;-71
2022/04/23 02:27:51;;;;;;;13.32;10.55;;;;;;;15.92;38.10;100072.75;5047114;28;20151;-71
2022/04/23 02:30:20;;;;;;;13.27;10.93;;;;;;;15.94;38.34;100058.91;5050302;28;20051;-71
2022/04/23 02:32:47;;;;;;;13.52;10.57;;;;;;;15.91;38.06;100067.44;5047361;28;20529;-71
2022/04/23 02:35:16;;;;;;;13.23;10.35;;;;;;;15.89;38.21;100064.88;5044630;28;20515;-71
2022/04/23 02:37:45;;;;;;;12.43;10.02;;;;;;;15.88;38.19;100063.16;5034316;28;20055;-71
2022/04/23 02:40:13;;;;;;;11.93;10.27;;;;;;;15.88;38.23;100062.28;5040049;28;20053;-71
2022/04/23 02:42:40;;;;;;;12.40;10.13;;;;;;;15.85;38.30;100068.06;5053501;28;20127;-71
2022/04/23 02:45:09;;;;;;;13.15;10.68;;;;;;;15.85;37.97;100060.72;5023656;28;20139;-72
2022/04/23 02:47:56;;;;;;;13.25;10.60;;;;;;;15.80;39.03;100060.34;5053336;28;20131;-71
2022/04/23 02:50:37;;;;;;;12.90;10.05;;;;;;;15.81;38.58;100064.75;5044552;28;20376;-71
2022/04/23 02:53:08;;;;;;;13.00;10.65;;;;;;;15.78;38.77;100072.44;5047219;28;20057;-71
2022/04/23 02:55:37;;;;;;;12.75;10.35;;;;;;;15.74;38.50;100057.34;5048797;28;20080;-72
2022/04/23 02:58:09;;;;;;;13.68;10.48;;;;;;;15.73;38.78;100050.16;5054839;28;20464;-71
2022/04/23 03:00:38;;;;;;;14.00;10.68;;;;;;;15.70;38.36;100065.00;5049628;28;20483;-71
2022/04/23 03:03:05;;;;;;;13.65;9.85;;;;;;;15.63;38.42;100058.44;5057460;28;20084;-71
2022/04/23 03:05:34;;;;;;;13.38;10.43;;;;;;;15.64;38.68;100059.31;5036603;28;20369;-71
2022/04/23 03:08:02;;;;;;;14.45;10.20;;;;;;;15.59;38.49;100057.00;5046061;28;20045;-72
2022/04/23 03:10:30;;;;;;;11.88;9.48;;;;;;;15.58;38.65;100061.63;5052386;28;20069;-71
2022/04/23 03:12:57;;;;;;;11.85;9.75;;;;;;;15.58;38.59;100058.00;5036110;28;20132;-71
2022/04/23 03:15:30;;;;;;;12.05;9.15;;;;;;;15.58;39.26;100063.50;5047033;28;20060;-70
2022/04/23 03:18:23;;;;;;;11.23;9.13;;;;;;;15.49;39.14;100054.28;5055641;28;20096;-71
2022/04/23 03:20:49;;;;;;;12.93;9.85;;;;;;;15.47;38.80;100055.47;5051557;28;20081;-70
2022/04/23 03:23:15;;;;;;;11.70;9.07;;;;;;;15.49;38.97;100065.22;5058589;28;20559;-71
2022/04/23 03:25:42;;;;;;;12.52;9.88;;;;;;;15.48;39.00;100058.03;5046928;28;20132;-71
2022/04/23 03:28:10;;;;;;;12.73;9.73;;;;;;;15.49;38.81;100057.03;5045989;28;20164;-71
2022/04/23 03:30:37;;;;;;;12.57;8.95;;;;;;;15.49;38.95;100061.63;5045046;28;20041;-71
2022/04/23 03:33:03;;;;;;;11.85;9.38;;;;;;;15.48;38.97;100063.50;5054737;28;20463;-71
2022/04/23 03:35:30;;;;;;;11.60;9.38;;;;;;;15.49;38.82;100053.44;5047948;28;20083;-72
2022/04/23 03:37:58;;;;;;;11.30;8.57;;;;;;;15.49;39.08;100056.16;5061110;28;20147;-71
2022/04/23 03:40:24;;;;;;;12.15;9.25;;;;;;;15.49;39.00;100058.91;5054426;28;20480;-71
2022/04/23 03:42:51;;;;;;;11.88;9.02;;;;;;;15.49;39.13;100056.16;5056032;28;20127;-72
2022/04/23 03:45:18;;;;;;;11.18;8.73;;;;;;;15.49;39.19;100057.03;5043894;28;20063;-71
2022/04/23 03:47:47;;;;;;;12.57;9.10;;;;;;;15.51;38.99;100048.66;5056178;28;20049;-70
2022/04/23 03:50:15;;;;;;;11.43;9.25;;;;;;;15.50;39.16;100045.06;5026878;28;20099;-71
2022/04/23 03:52:42;;;;;;;11.10;9.02;;;;;;;15.50;39.15;100050.53;5050871;28;20456;-72
2022/04/23 03:55:11;;;;;;;12.13;9.73;;;;;;;15.51;39.08;100051.41;5058304;28;20402;-71
2022/04/23 03:57:45;;;;;;;13.10;9.68;;;;;;;15.55;39.66;100052.88;5047602;28;20131;-71
2022/04/23 04:00:13;;;;;;;12.43;9.30;;;;;;;15.50;39.34;100053.28;5057539;28;20136;-71
2022/04/23 04:02:40;;;;;;;12.80;9.88;;;;;;;15.49;39.13;100051.56;5043529;28;20040;-71
2022/04/23 04:05:08;;;;;;;12.30;9.55;;;;;;;15.49;39.37;100051.56;5059458;28;20131;-72
2022/04/23 04:07:34;;;;;;;12.13;9.60;;;;;;;15.48;39.40;100049.84;5059396;28;20636;-72
2022/04/23 04:10:01;;;;;;;13.05;9.32;;;;;;;15.49;39.27;100042.50;5041098;28;20048;-72
2022/04/23 04:12:28;;;;;;;11.93;8.80;;;;;;;15.50;39.41;100046.94;5042212;28;20489;-72
2022/04/23 04:14:54;;;;;;;12.63;9.48;;;;;;;15.49;39.42;100043.34;5042332;28;20128;-71
2022/04/23 04:17:21;;;;;;;13.15;10.07;;;;;;;15.50;39.29;100049.69;5034462;28;20133;-70
2022/04/23 04:19:47;;;;;;;13.85;10.77;;;;;;;15.49;39.44;100039.75;5051800;28;20052;-70
2022/04/23 04:22:14;;;;;;;12.43;9.85;;;;;;;15.50;39.28;100041.47;5051241;28;20075;-69
2022/04/23 04:24:41;;;;;;;12.73;10.15;;;;;;;15.49;39.37;100037.00;5060328;28;20072;-70
2022/04/23 04:27:08;;;;;;;13.13;10.05;;;;;;;15.48;39.43;100047.09;5054542;28;20687;-70
2022/04/23 04:29:34;;;;;;;13.95;10.57;;;;;;;15.48;39.60;100044.34;5045465;28;20140;-68
2022/04/23 04:32:01;;;;;;;13.65;9.75;;;;;;;15.47;39.23;100037.19;5046872;28;20143;-71
2022/04/23 04:34:32;;;;;;;14.45;10.35;;;;;;;15.47;39.63;100039.94;5048891;28;20139;-70
2022/04/23 04:37:10;;;;;;;14.07;10.50;;;;;;;15.49;39.47;100037.00;5035030;28;20045;-69
2022/04/23 04:39:37;;;;;;;12.98;9.98;;;;;;;15.45;39.49;100044.69;5052050;28;20080;-70
2022/04/23 04:42:05;;;;;;;15.35;11.60;;;;;;;15.44;39.63;100045.69;5032322;28;20140;-70
2022/04/23 04:44:32;;;;;;;14.15;11.18;;;;;;;15.42;39.63;100035.91;5053213;28;20081;-70
2022/04/23 04:46:59;;;;;;;13.82;10.40;;;;;;;15.41;39.61;100036.94;5049996;28;20096;-69
2022/04/23 04:49:25;;;;;;;14.43;11.05;;;;;;;15.39;39.50;100037.09;5058790;28;20147;-70
2022/04/23 04:51:53;;;;;;;14.25;11.23;;;;;;;15.41;39.75;100036.94;5056576;28;20143;-70
2022/04/23 04:54:21;;;;;;;15.40;11.57;;;;;;;15.40;39.87;100033.31;5059715;28;20137;-70
2022/04/23 04:56:49;;;;;;;14.13;11.77;;;;;;;15.41;39.57;100045.13;5046881;28;20041;-70
2022/04/23 04:59:16;;;;;;;14.70;11.07;;;;;;;15.39;40.12;100041.72;5034596;28;20509;-70
2022/04/23 05:01:42;;;;;;;15.68;11.00;;;;;;;15.37;40.10;100038.25;5046437;28;20128;-70
2022/04/23 05:04:09;;;;;;;15.13;11.95;;;;;;;15.35;40.02;100041.13;5057042;28;20053;-70
2022/04/23 05:06:36;;;;;;;14.00;10.77;;;;;;;15.37;40.24;100041.00;5047306;28;20499;-69
2022/04/23 05:09:02;;;;;;;15.88;11.10;;;;;;;15.36;40.06;100039.28;5057127;28;20048;-70
2022/04/23 05:11:29;;;;;;;16.15;12.52;;;;;;;15.34;40.19;100038.56;5058599;28;20048;-70
2022/04/23 05:13:55;;;;;;;16.88;12.40;;;;;;;15.32;40.43;100038.69;5047365;28;20087;-70
2022/04/23 05:16:22;;;;;;;15.00;11.25;;;;;;;15.34;40.51;100042.16;5051162;28;20147;-71
2022/04/23 05:18:49;;;;;;;15.07;10.88;;;;;;;15.34;40.74;100042.16;5049200;28;20045;-70
2022/04/23 05:21:15;;;;;;;16.85;13.13;;;;;;;15.35;40.75;100035.66;5054675;28;20050;-70
2022/04/23 05:23:42;;;;;;;16.50;12.52;;;;;;;15.34;40.87;100039.41;5050325;28;20069;-70
2022/04/23 05:26:09;;;;;;;16.77;12.15;;;;;;;15.37;41.00;100032.78;5040196;28;20512;-70
2022/04/23 05:28:36;;;;;;;17.50;13.05;;;;;;;15.39;40.95;100037.09;5043667;28;20057;-70
2022/04/23 05:31:03;;;;;;;16.77;12.73;;;;;;;15.41;41.00;100036.94;5025188;28;20113;-70
2022/04/23 05:33:29;;;;;;;16.05;12.68;;;;;;;15.44;41.08;100036.63;5047294;28;20442;-70
2022/04/23 05:35:56;;;;;;;16.08;12.77;;;;;;;15.47;41.36;100034.47;5046703;28;20084;-70
2022/04/23 05:38:23;;;;;;;17.90;13.82;;;;;;;15.53;41.45;100030.22;5050947;28;20132;-71
2022/04/23 05:40:50;;;;;;;17.10;13.82;;;;;;;15.57;41.31;100032.53;5060009;28;20459;-70
2022/04/23 05:43:17;;;;;;;17.70;13.35;;;;;;;15.60;41.82;100025.91;5050557;28;20127;-70
2022/04/23 05:45:44;;;;;;;17.23;12.73;;;;;;;15.62;41.63;100023.88;5033286;28;20124;-70
2022/04/23 05:48:10;;;;;;;15.73;12.30;;;;;;;15.66;41.59;100022.53;5059038;28;20496;-71
2022/04/23 05:50:37;;;;;;;16.00;12.68;;;;;;;15.71;41.51;100020.22;5035144;28;20514;-70
2022/04/23 05:53:04;;;;;;;18.02;12.93;;;;;;;15.76;41.46;100017.84;5047594;28;20144;-70
2022/04/23 05:55:31;;;;;;;16.73;13.15;;;;;;;15.82;41.59;100024.56;5084519;22;20375;-69
2022/04/23 05:57:57;;;;;;;15.85;12.75;;;;;;;15.87;41.69;100019.50;5088796;28;20540;-69
2022/04/23 06:00:24;;;;;;;17.58;13.10;;;;;;;15.92;42.15;100019.88;5087751;28;20120;-69
2022/04/23 06:02:50;;;;;;;16.35;12.10;;;;;;;15.98;41.58;100024.72;5089031;28;20068;-69
2022/04/23 06:05:17;;;;;;;17.00;13.80;;;;;;;16.04;41.42;100026.84;5088570;28;20545;-68
2022/04/23 06:07:44;;;;;;;18.65;13.90;;;;;;;16.11;41.68;100027.06;5088869;28;20564;-69
2022/04/23 06:10:11;;;;;;;15.57;13.23;;;;;;;16.17;41.24;100029.16;5087336;28;20139;-69
2022/04/23 06:12:37;;;;;;;15.60;12.90;;;;;;;16.18;41.57;100020.81;5071334;28;20345;-69
2022/04/23 06:15:04;;;;;;;17.52;13.30;;;;;;;16.25;41.01;100027.38;5080100;28;20691;-69
2022/04/23 06:17:31;;;;;;;17.55;13.88;;;;;;;16.28;41.36;100032.53;5090332;28;20114;-69
2022/04/23 06:19:59;;;;;;;17.45;13.35;;;;;;;16.35;41.31;100027.28;5107280;28;20474;-69
2022/04/23 06:22:26;;;;;;;15.63;12.77;;;;;;;16.38;41.37;100028.84;5108324;28;20134;-69
2022/04/23 06:24:53;;;;;;;15.73;11.93;;;;;;;16.43;41.59;100026.47;5106945;28;20138;-70
2022/04/23 06:27:19;;;;;;;15.57;12.57;;;;;;;16.48;41.38;100024.97;5089261;28;20131;-71
2022/04/23 06:29:46;;;;;;;15.95;12.70;;;;;;;16.56;41.55;100021.41;5049077;28;20080;-69
2022/04/23 06:32:12;;;;;;;15.45;12.23;;;;;;;16.62;41.31;100024.44;5089673;28;20132;-69
2022/04/23 06:34:40;;;;;;;14.85;11.68;;;;;;;16.73;41.11;100024.13;5090861;28;20056;-68
2022/04/23 06:37:08;;;;;;;16.83;12.02;;;;;;;16.82;41.06;100025.03;5082612;28;20118;-67
2022/04/23 06:39:35;;;;;;;16.60;12.07;;;;;;;16.93;41.31;100022.03;5081064;28;20559;-68
2022/04/23 06:42:02;;;;;;;16.35;11.85;;;;;;;17.06;41.08;100032.53;5090656;28;20083;-67
2022/04/23 06:44:29;;;;;;;15.15;11.93;;;;;;;17.14;41.04;100027.09;5090247;28;20058;-68
2022/04/23 06:46:56;;;;;;;14.07;11.80;;;;;;;17.28;40.84;100028.38;5086814;28;20806;-69
2022/04/23 06:49:24;;;;;;;14.20;11.38;;;;;;;17.41;41.25;100031.47;5110708;28;20503;-68
2022/04/23 06:51:50;;;;;;;14.07;11.73;;;;;;;17.57;40.92;100033.41;5112156;28;20548;-67
2022/04/23 06:54:17;;;;;;;13.52;11.00;;;;;;;17.74;40.76;100024.22;5092553;28;20051;-69
2022/04/23 06:56:44;;;;;;;13.50;11.20;;;;;;;17.94;40.47;100031.13;5110816;28;20062;-69
2022/04/23 06:59:11;;;;;;;13.05;10.93;;;;;;;18.16;40.31;100029.59;5092800;28;20539;-69
2022/04/23 07:01:40;;;;;;;11.32;9.27;;;;;;;18.37;40.31;100024.44;5110940;28;20131;-69
2022/04/23 07:04:08;;;;;;;12.82;10.63;;;;;;;18.62;39.83;100023.41;5110850;28;20060;-69
2022/04/23 07:06:35;;;;;;;12.73;11.05;;;;;;;18.85;39.46;100030.94;5093064;28;20504;-69
2022/04/23 07:09:03;;;;;;;12.43;10.15;;;;;;;19.08;39.08;100020.03;5111290;28;20159;-69
2022/04/23 07:11:30;;;;;;;10.82;9.30;;;;;;;19.30;38.78;100024.75;5111333;28;20090;-69
2022/04/23 07:13:56;;;;;;;10.40;8.90;;;;;;;19.50;38.89;100028.81;5090469;28;20138;-69
2022/04/23 07:16:23;;;;;;;11.55;9.50;;;;;;;19.72;38.50;100022.50;5110545;28;20488;-69
2022/04/23 07:18:52;;;;;;;10.27;8.65;;;;;;;19.93;38.30;100019.06;5092172;28;20546;-68
2022/04/23 07:21:22;;;;;;;10.48;9.05;;;;;;;20.16;37.36;100019.09;5110784;28;20466;-69
2022/04/23 07:24:05;;;;;;;9.63;7.68;;;;;;;20.34;37.67;100016.88;5091792;28;20104;-68
2022/04/23 07:26:37;;;;;;;11.07;9.13;;;;;;;20.55;37.14;100016.19;5110973;28;20135;-69
2022/04/23 07:29:07;;;;;;;10.57;8.85;;;;;;;20.74;36.88;100021.19;5110105;28;20052;-68
2022/04/23 07:31:36;;;;;;;9.93;8.52;;;;;;;20.92;35.79;100028.25;5111234;28;20706;-68
2022/04/23 07:39:34;;;;;;;9.48;8.35;;;;;;;21.24;34.58;100003.03;5110097;28;20138;-68
2022/04/23 07:42:02;;;;;;;9.57;8.35;;;;;;;21.32;34.24;100004.84;5109814;28;20134;-68
2022/04/23 07:44:29;;;;;;;9.52;7.85;;;;;;;21.38;34.07;100001.28;5091213;28;20047;-68
2022/04/23 07:46:55;;;;;;;9.63;7.95;;;;;;;21.45;33.94;100002.22;5111108;28;20162;-68
2022/04/23 07:49:22;;;;;;;10.20;8.25;;;;;;;21.50;33.71;100006.13;5080309;28;20052;-68
2022/04/23 07:51:50;;;;;;;9.38;7.88;;;;;;;21.54;33.59;100006.59;5054170;28;20164;-68
2022/04/23 07:54:16;;;;;;;8.70;7.38;;;;;;;21.59;33.66;99998.56;5088919;28;20121;-68
2022/04/23 07:56:44;;;;;;;7.93;6.95;;;;;;;21.63;34.07;99998.00;5089816;28;20071;-68
2022/04/23 07:59:11;;;;;;;8.82;7.60;;;;;;;21.70;33.31;99997.22;5089633;28;20106;-68
2022/04/23 08:01:37;;;;;;;9.45;8.38;;;;;;;21.75;32.93;99994.72;5089560;28;20040;-68
2022/04/23 08:04:04;;;;;;;9.27;7.53;;;;;;;21.78;33.26;100003.47;5088523;28;20048;-68
2022/04/23 08:06:32;;;;;;;8.07;7.05;;;;;;;21.80;32.88;100006.06;5092305;28;20332;-68
2022/04/23 08:08:59;;;;;;;9.48;7.80;;;;;;;21.82;32.88;99998.44;5088977;28;20055;-68
2022/04/23 08:11:26;;;;;;;9.68;7.53;;;;;;;21.85;32.88;100004.41;5088273;28;20052;-68
2022/04/23 08:13:53;;;;;;;9.15;7.55;;;;;;;21.85;32.21;99987.81;5082261;28;20059;-68
2022/04/23 08:16:20;;;;;;;8.95;7.43;;;;;;;21.88;32.39;99983.81;5069719;28;20087;-68
2022/04/23 08:18:47;;;;;;;9.27;6.90;;;;;;;21.89;32.41;99983.63;5076721;28;20139;-68
2022/04/23 08:21:14;;;;;;;8.00;6.20;;;;;;;21.91;32.37;99988.94;5100565;28;20127;-68
2022/04/23 08:23:40;;;;;;;8.35;6.75;;;;;;;21.94;32.40;99991.31;5088716;28;20131;-69
2022/04/23 08:26:07;;;;;;;8.25;7.03;;;;;;;21.98;32.44;99990.78;5108755;28;20143;-68
2022/04/23 08:31:18;;;;;;;9.35;6.70;;;;;;;22.04;32.18;99986.34;5098626;28;20090;-69
2022/04/23 08:34:00;;;;;;;7.88;6.50;;;;;;;22.09;32.05;99994.03;5088716;28;20060;-68
2022/04/23 08:36:36;;;;;;;8.17;7.30;;;;;;;22.10;31.11;99995.75;5059320;28;20163;-69
2022/04/23 08:39:07;;;;;;;8.48;6.82;;;;;;;22.11;30.82;99994.72;5069507;28;20052;-68
2022/04/23 08:41:35;;;;;;;8.25;6.05;;;;;;;22.09;31.85;100003.19;5081432;28;20123;-68
2022/04/23 08:44:07;;;;;;;8.05;6.72;;;;;;;22.16;31.82;99995.81;5088734;28;20062;-68
2022/04/23 08:46:36;;;;;;;8.35;7.03;;;;;;;22.20;31.35;99996.28;5088854;28;20048;-69
2022/04/23 08:49:14;;;;;;;7.10;6.35;;;;;;;22.23;31.20;99987.59;5088743;28;20060;-69
2022/04/23 08:51:45;;;;;;;7.32;6.10;;;;;;;22.23;31.81;100001.44;5088186;28;20078;-69
2022/04/23 08:54:13;;;;;;;7.10;6.13;;;;;;;22.24;31.57;100000.34;5087391;28;20094;-69
2022/04/23 08:56:42;;;;;;;9.10;6.70;;;;;;;22.26;31.15;99990.81;5092410;28;20079;-68
2022/04/23 08:59:15;;;;;;;7.03;5.88;;;;;;;22.28;30.84;99998.91;5089835;28;20087;-69
2022/04/23 09:01:47;;;;;;;6.47;5.53;;;;;;;22.24;31.47;99995.69;5098060;28;20040;-70
2022/04/23 09:04:14;;;;;;;7.47;5.80;;;;;;;22.27;31.03;99983.38;5082905;28;20052;-70
2022/04/23 09:06:42;;;;;;;7.65;5.75;;;;;;;22.29;31.25;99990.44;5063795;28;20044;-69
2022/04/23 09:09:12;;;;;;;8.52;6.13;;;;;;;22.33;31.54;99990.88;5083258;28;20083;-69
2022/04/23 09:11:50;;;;;;;7.95;6.35;;;;;;;22.36;31.17;99996.88;5084847;28;20487;-68
2022/04/23 09:14:33;;;;;;;7.63;6.45;;;;;;;22.44;30.66;99995.88;5088370;28;20518;-69
2022/04/23 09:25:35;;;;;;;7.93;6.72;;;;;;;22.72;30.62;99990.34;5101985;28;20135;-70
2022/04/23 09:28:27;;;;;;;8.18;7.00;;;;;;;22.76;30.06;99988.91;5087842;28;20067;-69
2022/04/23 09:30:55;;;;;;;8.90;6.70;;;;;;;22.78;30.63;99986.78;5067437;28;20127;-68
2022/04/23 09:33:29;;;;;;;8.15;6.60;;;;;;;22.88;30.32;100005.81;5101879;28;20059;-69
2022/04/23 09:35:57;;;;;;;7.70;6.70;;;;;;;22.94;30.63;99993.94;5089323;28;20424;-69
2022/04/23 09:38:25;;;;;;;7.88;7.05;;;;;;;22.96;30.17;99991.81;5101365;28;20527;-68
2022/04/23 09:41:15;;;;;;;8.00;6.93;;;;;;;23.03;29.72;99978.88;5087829;28;20071;-69
2022/04/23 09:43:43;;;;;;;7.88;6.43;;;;;;;23.04;30.27;99983.34;5087355;28;20138;-69
2022/04/23 09:46:10;;;;;;;8.55;7.15;;;;;;;23.08;29.95;99985.47;5088212;28;20492;-69
2022/04/23 09:48:39;;;;;;;7.93;6.82;;;;;;;23.12;29.43;99975.72;5088565;28;20054;-69
2022/04/23 09:51:24;;;;;;;8.82;7.13;;;;;;;23.15;28.91;99979.97;5087629;28;20079;-68
2022/04/23 09:53:53;;;;;;;7.13;6.30;;;;;;;23.12;29.13;99974.88;5087099;28;20116;-69
2022/04/23 09:56:26;;;;;;;8.05;6.22;;;;;;;23.15;29.12;99977.22;5086728;28;20048;-69
2022/04/23 09:58:54;;;;;;;7.47;6.45;;;;;;;23.12;29.62;99977.63;5087054;28;20120;-70
2022/04/23 10:01:22;;;;;;;8.20;7.28;;;;;;;23.09;29.34;99976.13;5087131;28;20140;-69
2022/04/23 10:03:52;;;;;;;7.50;6.60;;;;;;;23.11;29.45;99975.91;5087366;28;20040;-69
2022/04/23 10:06:21;;;;;;;8.70;7.10;;;;;;;23.10;29.61;99988.91;5087630;28;20105;-70
2022/04/23 10:08:51;;;;;;;8.10;6.70;;;;;;;23.13;29.22;99982.13;5087589;28;20075;-72
2022/04/23 10:11:29;;;;;;;8.57;7.15;;;;;;;23.17;28.66;99969.56;5078134;28;20079;-70
2022/04/23 10:13:59;;;;;;;7.82;7.00;;;;;;;23.18;29.48;99970.41;5077940;28;20052;-71
2022/04/23 10:16:28;;;;;;;11.02;7.70;;;;;;;23.22;28.97;99975.34;5087888;28;20052;-70
2022/04/23 10:18:56;;;;;;;8.50;7.25;;;;;;;23.27;28.91;99980.25;5087617;28;20087;-70
2022/04/23 10:21:46;;;;;;;8.80;7.30;;;;;;;23.30;28.26;99977.09;5080762;28;20083;-69
2022/04/23 10:24:27;;;;;;;10.10;8.02;;;;;;;23.30;27.81;99974.31;5086552;28;20112;-70
2022/04/23 10:26:59;;;;;;;9.93;8.15;;;;;;;23.34;28.27;99978.38;5086719;28;20080;-69
2022/04/23 10:29:28;;;;;;;8.40;7.22;;;;;;;23.37;28.46;99991.81;5085299;28;22138;-69
2022/04/23 10:32:16;;;;;;;8.15;7.05;;;;;;;23.36;28.38;99981.78;5081581;28;20048;-69
2022/04/23 10:34:44;;;;;;;7.72;6.07;;;;;;;23.40;28.71;99983.94;5082460;28;20052;-69
2022/04/23 10:37:22;;;;;;;7.18;5.72;;;;;;;23.48;28.03;99972.69;5099573;28;20175;-69
2022/04/23 10:39:51;;;;;;;7.85;5.85;;;;;;;23.51;27.80;99966.75;5091771;28;20087;-69
2022/04/23 10:42:25;;;;;;;6.53;5.03;;;;;;;23.58;28.14;99983.41;5083566;28;20374;-69
2022/04/23 10:44:55;;;;;;;8.10;6.05;;;;;;;23.63;28.10;99972.56;5092124;28;20130;-70
2022/04/23 10:47:34;;;;;;;7.05;5.90;;;;;;;23.70;27.52;99976.22;5087476;28;20440;-69
2022/04/23 10:50:13;;;;;;;6.57;5.68;;;;;;;23.74;27.10;99977.47;5088215;28;20060;-69
2022/04/23 10:52:40;;;;;;;7.13;6.43;;;;;;;23.76;28.17;99969.81;5086804;28;20138;-69
2022/04/23 10:55:08;;;;;;;6.47;5.78;;;;;;;23.83;28.13;99967.06;5100703;28;20067;-69
2022/04/23 10:57:35;;;;;;;8.15;6.50;;;;;;;23.86;27.41;99977.75;5079323;28;20135;-69
2022/04/23 11:00:16;;;;;;;7.40;6.38;;;;;;;23.92;27.11;99960.25;5085704;28;20130;-69
2022/04/23 11:02:56;;;;;;;6.88;5.68;;;;;;;23.92;26.87;99963.03;5081052;28;20048;-69
2022/04/23 11:14:37;;;;;;;7.43;6.13;;;;;;;23.81;26.72;99967.25;5084656;28;20127;-69
2022/04/23 11:17:04;;;;;;;7.60;6.30;;;;;;;23.76;26.71;99950.41;5087615;28;20178;-68
2022/04/23 11:19:31;;;;;;;7.45;6.50;;;;;;;23.76;27.16;99958.72;5090588;28;20110;-69
2022/04/23 11:21:58;;;;;;;6.97;6.00;;;;;;;23.76;27.00;99949.56;5100536;28;20123;-69
2022/04/23 11:24:25;;;;;;;7.65;6.03;;;;;;;23.75;26.84;99956.16;5091050;28;20131;-68
2022/04/23 11:26:51;;;;;;;7.28;6.10;;;;;;;23.76;27.04;99949.56;5092213;28;20413;-68
2022/04/23 11:29:18;;;;;;;7.70;6.53;;;;;;;23.78;27.01;99953.84;5102459;28;20127;-68
2022/04/23 11:31:51;;;;;;;8.30;6.20;;;;;;;23.84;26.50;99958.53;5085148;28;20135;-71
2022/04/23 11:34:18;;;;;;;7.43;5.95;;;;;;;23.80;26.55;99956.41;5091721;28;20087;-69
2022/04/23 11:36:44;;;;;;;7.18;6.03;;;;;;;23.83;26.29;99947.66;5104346;28;20130;-68
2022/04/23 11:39:13;;;;;;;7.47;5.93;;;;;;;23.84;26.39;99950.22;5096193;28;20583;-70
2022/04/23 11:41:51;;;;;;;8.18;6.15;;;;;;;23.88;25.90;99954.25;5088256;28;20595;-70
2022/04/23 11:44:18;;;;;;;6.50;5.22;;;;;;;23.86;26.53;99953.63;5093274;28;20150;-69
2022/04/23 11:46:48;;;;;;;7.35;6.25;;;;;;;23.86;25.94;99950.00;5092881;28;20084;-69
2022/04/23 11:49:25;;;;;;;7.95;6.38;;;;;;;23.87;25.78;99949.81;5062073;28;20482;-69